createdAt,value
2022-10-18T00:02:16.102Z,101577.78
2022-10-18T00:04:38.619Z,101578.78
2022-10-18T00:07:01.054Z,101579.13
2022-10-18T00:09:23.665Z,101580.47
2022-10-18T00:11:46.028Z,101582.78
2022-10-18T00:14:08.543Z,101576.25
2022-10-18T00:16:30.919Z,101578.25
2022-10-18T00:18:53.340Z,101578.09
2022-10-18T00:21:18.597Z,101582.03
2022-10-18T00:23:41.102Z,101582.22
2022-10-18T00:26:14.938Z,101580.59
2022-10-18T00:28:38.857Z,101576.16
2022-10-18T00:31:17.177Z,101581.59
2022-10-18T00:33:39.878Z,101584.25
2022-10-18T00:36:02.234Z,101574.94
2022-10-18T00:38:24.605Z,101576.06
2022-10-18T00:40:46.982Z,101574.44
2022-10-18T00:43:14.975Z,101571.53
2022-10-18T00:45:37.337Z,101568.59
2022-10-18T00:48:02.651Z,101571.69
2022-10-18T00:50:25.533Z,101569.25
2022-10-18T00:52:58.426Z,101570.72
2022-10-18T00:55:20.931Z,101562.56
2022-10-18T00:57:43.418Z,101570.78
2022-10-18T01:00:09.902Z,101570.63
2022-10-18T01:02:32.826Z,101576.75
2022-10-18T01:04:55.422Z,101579.38
2022-10-18T01:07:35.174Z,101578.91
2022-10-18T01:10:22.491Z,101574.38
2022-10-18T01:12:47.436Z,101577.31
2022-10-18T01:15:21.591Z,101578.13
2022-10-18T01:18:01.751Z,101580.47
2022-10-18T01:20:59.096Z,101573.56
2022-10-18T01:23:49.925Z,101567.84
2022-10-18T01:26:37.823Z,101570.00
2022-10-18T01:29:53.504Z,101568.84
2022-10-18T01:32:44.630Z,101554.09
2022-10-18T01:35:11.843Z,101556.56
2022-10-18T01:37:34.497Z,101566.53
2022-10-18T01:39:57.423Z,101559.50
2022-10-18T01:42:19.953Z,101566.25
2022-10-18T01:44:42.431Z,101566.25
2022-10-18T01:47:04.773Z,101564.63
2022-10-18T01:49:27.262Z,101564.63
2022-10-18T01:51:49.593Z,101554.97
2022-10-18T01:54:13.217Z,101554.97
2022-10-18T01:57:02.106Z,101562.50
2022-10-18T01:59:38.748Z,101561.66
2022-10-18T02:02:30.247Z,101559.72
2022-10-18T02:05:10.909Z,101561.19
2022-10-18T02:07:40.086Z,101565.94
2022-10-18T02:10:32.870Z,101575.44
2022-10-18T02:12:55.339Z,101572.84
2022-10-18T02:15:21.212Z,101565.31
2022-10-18T02:17:43.610Z,101573.69
2022-10-18T02:20:06.947Z,101580.72
2022-10-18T02:22:31.832Z,101581.06
2022-10-18T02:24:56.228Z,101579.09
2022-10-18T02:27:18.682Z,101580.91
2022-10-18T02:29:41.632Z,101578.94
2022-10-18T02:32:29.186Z,101585.19
2022-10-18T02:35:19.189Z,101592.25
2022-10-18T02:37:41.528Z,101588.13
2022-10-18T02:40:05.859Z,101599.63
2022-10-18T02:42:54.631Z,101604.06
2022-10-18T02:45:17.127Z,101600.91
2022-10-18T02:47:39.541Z,101605.66
2022-10-18T02:50:01.955Z,101610.09
2022-10-18T02:52:24.330Z,101604.84
2022-10-18T02:54:46.682Z,101603.69
2022-10-18T02:57:09.111Z,101602.88
2022-10-18T02:59:31.506Z,101595.69
2022-10-18T03:01:53.955Z,101593.69
2022-10-18T03:04:16.433Z,101604.06
2022-10-18T03:06:38.848Z,101603.69
2022-10-18T03:09:03.874Z,101607.31
2022-10-18T03:11:26.230Z,101597.31
2022-10-18T03:13:50.352Z,101597.81
2022-10-18T03:16:13.054Z,101594.22
2022-10-18T03:18:35.471Z,101599.28
2022-10-18T03:20:57.814Z,101589.44
2022-10-18T03:23:20.148Z,101595.03
2022-10-18T03:25:45.633Z,101604.72
2022-10-18T03:28:08.881Z,101606.00
2022-10-18T03:30:31.301Z,101607.16
2022-10-18T03:32:54.372Z,101604.84
2022-10-18T03:35:16.924Z,101612.25
2022-10-18T03:37:39.262Z,101604.38
2022-10-18T03:40:01.812Z,101602.41
2022-10-18T03:42:24.214Z,101607.97
2022-10-18T03:44:46.577Z,101610.75
2022-10-18T03:47:08.917Z,101598.47
2022-10-18T03:49:31.275Z,101604.06
2022-10-18T03:51:53.646Z,101610.91
2022-10-18T03:54:16.007Z,101602.56
2022-10-18T03:56:38.370Z,101609.59
2022-10-18T03:59:00.729Z,101619.59
2022-10-18T04:01:23.319Z,101627.13
2022-10-18T04:03:45.717Z,101628.28
2022-10-18T04:06:10.010Z,101637.78
2022-10-18T04:08:32.371Z,101641.72
2022-10-18T04:10:54.724Z,101636.47
2022-10-18T04:13:17.071Z,101643.06
2022-10-18T04:15:39.444Z,101654.69
2022-10-18T04:18:01.851Z,101640.41
2022-10-18T04:20:25.055Z,101640.41
2022-10-18T04:22:50.494Z,101630.56
2022-10-18T04:25:12.858Z,101638.47
2022-10-18T04:27:36.046Z,101638.13
2022-10-18T04:29:58.442Z,101642.88
2022-10-18T04:32:20.786Z,101638.78
2022-10-18T04:36:50.140Z,101625.34
2022-10-18T04:38:52.310Z,101627.31
2022-10-18T04:40:54.439Z,101620.25
2022-10-18T04:42:57.210Z,101621.75
2022-10-18T04:44:59.261Z,101633.69
2022-10-18T04:47:01.377Z,101628.13
2022-10-18T04:49:03.506Z,101627.97
2022-10-18T04:51:05.915Z,101637.63
2022-10-18T04:53:08.015Z,101621.72
2022-10-18T04:55:10.224Z,101625.00
2022-10-18T04:57:12.354Z,101632.41
2022-10-18T04:59:14.493Z,101633.19
2022-10-18T05:01:17.336Z,101629.63
2022-10-18T05:03:19.556Z,101636.50
2022-10-18T05:05:21.634Z,101632.69
2022-10-18T05:07:23.813Z,101643.56
2022-10-18T05:09:25.932Z,101639.28
2022-10-18T05:11:28.020Z,101637.97
2022-10-18T05:13:30.613Z,101643.19
2022-10-18T05:15:32.728Z,101640.91
2022-10-18T05:17:34.827Z,101637.47
2022-10-18T05:19:36.918Z,101636.44
2022-10-18T05:21:39.025Z,101636.94
2022-10-18T05:23:41.130Z,101631.84
2022-10-18T05:25:43.785Z,101627.09
2022-10-18T05:27:45.874Z,101631.19
2022-10-18T05:29:48.307Z,101633.97
2022-10-18T05:31:50.827Z,101631.03
2022-10-18T05:33:53.012Z,101633.00
2022-10-18T05:35:55.149Z,101641.00
2022-10-18T05:37:57.297Z,101642.34
2022-10-18T05:39:59.432Z,101641.66
2022-10-18T05:42:02.468Z,101640.06
2022-10-18T05:44:05.490Z,101654.47
2022-10-18T05:46:12.092Z,101651.84
2022-10-18T05:48:17.402Z,101656.41
2022-10-18T05:50:19.552Z,101655.09
2022-10-18T05:52:21.790Z,101644.78
2022-10-18T05:54:23.962Z,101650.81
2022-10-18T05:56:26.152Z,101641.63
2022-10-18T05:58:28.350Z,101641.63
2022-10-18T06:00:30.528Z,101644.25
2022-10-18T06:02:32.672Z,101648.34
2022-10-18T06:04:35.222Z,101644.91
2022-10-18T06:06:37.928Z,101645.25
2022-10-18T06:08:40.251Z,101638.84
2022-10-18T06:10:42.344Z,101642.16
2022-10-18T06:12:44.557Z,101654.59
2022-10-18T06:14:47.471Z,101654.28
2022-10-18T06:16:50.618Z,101657.84
2022-10-18T06:18:54.982Z,101670.34
2022-10-18T06:20:59.051Z,101664.56
2022-10-18T06:23:01.228Z,101662.59
2022-10-18T06:25:03.436Z,101668.66
2022-10-18T06:27:09.597Z,101675.22
2022-10-18T06:29:11.946Z,101681.25
2022-10-18T06:31:14.439Z,101676.84
2022-10-18T06:33:37.234Z,101686.19
2022-10-18T06:35:39.375Z,101685.88
2022-10-18T06:39:48.545Z,101675.84
2022-10-18T06:41:50.698Z,101676.19
2022-10-18T06:43:55.117Z,101685.22
2022-10-18T06:45:57.346Z,101684.41
2022-10-18T06:47:59.618Z,101678.00
2022-10-18T06:50:01.742Z,101671.78
2022-10-18T06:52:04.037Z,101677.53
2022-10-18T06:54:17.612Z,101683.09
2022-10-18T06:56:20.474Z,101683.09
2022-10-18T06:58:22.570Z,101690.78
2022-10-18T07:00:24.696Z,101687.66
2022-10-18T07:02:26.950Z,101694.38
2022-10-18T07:04:30.467Z,101700.56
2022-10-18T07:06:32.599Z,101697.44
2022-10-18T07:08:35.203Z,101698.91
2022-10-18T07:10:37.412Z,101702.19
2022-10-18T07:12:39.587Z,101703.31
2022-10-18T07:14:41.705Z,101698.25
2022-10-18T07:16:43.872Z,101699.19
2022-10-18T07:18:50.646Z,101694.78
2022-10-18T07:20:52.767Z,101710.03
2022-10-18T07:22:57.168Z,101720.84
2022-10-18T07:24:59.282Z,101721.34
2022-10-18T07:27:01.378Z,101718.56
2022-10-18T07:29:09.608Z,101712.97
2022-10-18T07:31:12.404Z,101725.59
2022-10-18T07:33:14.450Z,101734.47
2022-10-18T07:35:16.679Z,101724.63
2022-10-18T07:37:18.841Z,101719.50
2022-10-18T07:39:21.090Z,101708.34
2022-10-18T07:41:23.347Z,101704.41
2022-10-18T07:43:25.576Z,101712.78
2022-10-18T07:45:27.716Z,101706.53
2022-10-18T07:47:31.383Z,101717.22
2022-10-18T07:49:36.512Z,101722.28
2022-10-18T07:51:38.653Z,101723.13
2022-10-18T07:53:40.851Z,101725.75
2022-10-18T07:55:43.359Z,101719.81
2022-10-18T07:57:45.503Z,101713.56
2022-10-18T07:59:48.354Z,101708.47
2022-10-18T08:01:50.479Z,101719.16
2022-10-18T08:03:53.119Z,101713.88
2022-10-18T08:05:55.451Z,101720.44
2022-10-18T08:07:57.602Z,101711.72
2022-10-18T08:09:59.740Z,101711.03
2022-10-18T08:12:01.897Z,101706.28
2022-10-18T08:14:03.989Z,101708.88
2022-10-18T08:16:08.951Z,101702.66
2022-10-18T08:18:11.252Z,101701.47
2022-10-18T08:20:30.029Z,101700.94
2022-10-18T08:22:32.825Z,101705.22
2022-10-18T08:24:34.940Z,101704.75
2022-10-18T08:26:37.056Z,101704.88
2022-10-18T08:28:39.544Z,101697.69
2022-10-18T08:30:41.713Z,101689.91
2022-10-18T08:32:43.877Z,101684.13
2022-10-18T08:34:45.979Z,101682.97
2022-10-18T08:36:48.097Z,101685.09
2022-10-18T08:38:50.344Z,101683.44
2022-10-18T08:40:52.536Z,101667.19
2022-10-18T08:45:43.194Z,101663.84
2022-10-18T08:47:49.133Z,101677.00
2022-10-18T08:49:54.699Z,101671.88
2022-10-18T08:51:57.251Z,101658.41
2022-10-18T08:54:22.908Z,101656.53
2022-10-18T08:56:25.136Z,101653.50
2022-10-18T08:58:31.709Z,101646.41
2022-10-18T09:00:34.930Z,101642.78
2022-10-18T09:03:26.506Z,101643.25
2022-10-18T09:05:41.927Z,101653.28
2022-10-18T09:07:47.723Z,101639.78
2022-10-18T09:10:10.177Z,101634.88
2022-10-18T09:12:50.958Z,101629.31
2022-10-18T09:15:14.201Z,101639.31
2022-10-18T09:17:30.475Z,101652.13
2022-10-18T09:19:55.147Z,101650.78
2022-10-18T09:22:12.964Z,101653.47
2022-10-18T09:24:22.413Z,101653.06
2022-10-18T09:26:24.962Z,101655.50
2022-10-18T09:28:45.379Z,101661.59
2022-10-18T09:31:02.034Z,101670.09
2022-10-18T09:33:21.519Z,101674.19
2022-10-18T09:35:27.553Z,101673.97
2022-10-18T09:37:30.743Z,101673.63
2022-10-18T09:39:35.598Z,101673.78
2022-10-18T09:42:04.588Z,101672.44
2022-10-18T09:44:20.028Z,101673.78
2022-10-18T09:46:23.667Z,101665.84
2022-10-18T09:48:51.204Z,101664.00
2022-10-18T09:51:25.616Z,101668.28
2022-10-18T09:53:50.367Z,101668.28
2022-10-18T09:55:57.007Z,101661.91
2022-10-18T09:58:00.969Z,101654.66
2022-10-18T10:00:05.139Z,101659.44
2022-10-18T10:02:09.443Z,101659.09
2022-10-18T10:04:11.684Z,101663.50
2022-10-18T10:06:16.539Z,101660.53
2022-10-18T10:08:18.715Z,101658.59
2022-10-18T10:10:25.577Z,101655.88
2022-10-18T10:12:38.640Z,101658.69
2022-10-18T10:14:43.976Z,101658.06
2022-10-18T10:16:58.539Z,101657.41
2022-10-18T10:19:00.680Z,101658.69
2022-10-18T10:21:05.942Z,101664.28
2022-10-18T10:23:26.188Z,101670.34
2022-10-18T10:25:40.976Z,101663.88
2022-10-18T10:27:46.235Z,101670.28
2022-10-18T10:29:48.253Z,101666.53
2022-10-18T10:32:03.256Z,101663.38
2022-10-18T10:34:15.138Z,101664.88
2022-10-18T10:36:21.945Z,101664.88
2022-10-18T10:38:29.040Z,101657.63
2022-10-18T10:40:32.291Z,101656.47
2022-10-18T10:42:38.017Z,101656.13
2022-10-18T10:44:40.148Z,101651.34
2022-10-18T10:46:42.251Z,101646.94
2022-10-18T10:48:50.358Z,101646.44
2022-10-18T10:51:09.836Z,101645.66
2022-10-18T10:53:56.338Z,101649.03
2022-10-18T10:55:58.476Z,101651.09
2022-10-18T10:58:00.707Z,101649.72
2022-10-18T11:00:02.964Z,101646.34
2022-10-18T11:02:20.753Z,101643.00
2022-10-18T11:04:30.251Z,101641.34
2022-10-18T11:07:06.416Z,101643.69
2022-10-18T11:09:42.241Z,101647.97
2022-10-18T11:11:49.938Z,101644.03
2022-10-18T11:14:25.320Z,101637.34
2022-10-18T11:16:58.789Z,101638.84
2022-10-18T11:19:01.464Z,101635.44
2022-10-18T11:21:23.250Z,101628.13
2022-10-18T11:23:31.847Z,101630.09
2022-10-18T11:26:18.393Z,101619.97
2022-10-18T11:29:15.219Z,101606.16
2022-10-18T11:31:58.413Z,101605.53
2022-10-18T11:34:47.117Z,101605.38
2022-10-18T11:37:30.114Z,101589.75
2022-10-18T11:39:43.664Z,101584.84
2022-10-18T11:41:58.613Z,101585.13
2022-10-18T11:44:04.231Z,101581.66
2022-10-18T11:46:41.449Z,101580.28
2022-10-18T11:48:49.275Z,101564.34
2022-10-18T11:51:34.271Z,101559.25
2022-10-18T11:54:22.658Z,101562.63
2022-10-18T11:56:39.326Z,101566.47
2022-10-18T11:58:59.385Z,101576.13
2022-10-18T12:01:24.712Z,101582.41
2022-10-18T12:03:51.286Z,101565.78
2022-10-18T12:05:54.375Z,101569.53
2022-10-18T12:08:29.496Z,101557.19
2022-10-18T12:10:44.406Z,101550.47
2022-10-18T12:13:02.126Z,101549.63
2022-10-18T12:15:13.947Z,101540.25
2022-10-18T12:17:50.088Z,101533.47
2022-10-18T12:19:52.450Z,101527.06
2022-10-18T12:22:10.811Z,101525.66
2022-10-18T12:24:25.318Z,101519.59
2022-10-18T12:26:28.409Z,101531.38
2022-10-18T12:29:15.235Z,101514.28
2022-10-18T12:31:36.983Z,101511.13
2022-10-18T12:33:40.855Z,101508.84
2022-10-18T12:35:59.282Z,101508.47
2022-10-18T12:38:24.668Z,101500.09
2022-10-18T12:40:39.067Z,101490.72
2022-10-18T12:42:46.538Z,101487.09
2022-10-18T12:44:48.801Z,101479.66
2022-10-18T12:47:01.184Z,101484.88
2022-10-18T12:49:04.868Z,101494.09
2022-10-18T12:51:15.392Z,101495.72
2022-10-18T12:53:20.374Z,101504.13
2022-10-18T12:55:25.060Z,101509.34
2022-10-18T12:57:27.199Z,101502.94
2022-10-18T12:59:29.203Z,101504.13
2022-10-18T13:01:51.370Z,101515.97
2022-10-18T13:03:56.960Z,101517.13
2022-10-18T13:06:04.163Z,101516.66
2022-10-18T13:08:38.192Z,101532.34
2022-10-18T13:10:40.944Z,101532.19
2022-10-18T13:12:57.428Z,101534.78
2022-10-18T13:15:40.819Z,101529.56
2022-10-18T13:18:04.867Z,101515.03
2022-10-18T13:20:26.518Z,101504.38
2022-10-18T13:22:54.813Z,101509.25
2022-10-18T13:25:16.745Z,101499.59
2022-10-18T13:27:45.130Z,101501.06
2022-10-18T13:30:50.441Z,101495.13
2022-10-18T13:33:27.883Z,101498.59
2022-10-18T13:35:45.873Z,101495.13
2022-10-18T13:37:59.758Z,101491.84
2022-10-18T13:40:24.159Z,101497.63
2022-10-18T13:42:32.017Z,101492.19
2022-10-18T13:44:37.917Z,101486.94
2022-10-18T13:46:39.972Z,101483.47
2022-10-18T13:48:51.633Z,101491.84
2022-10-18T13:50:53.791Z,101482.19
2022-10-18T13:53:07.730Z,101475.53
2022-10-18T13:55:33.608Z,101470.78
2022-10-18T13:58:03.059Z,101477.28
2022-10-18T14:00:58.224Z,101477.53
2022-10-18T14:03:56.326Z,101483.59
2022-10-18T14:06:06.144Z,101493.81
2022-10-18T14:08:28.353Z,101486.25
2022-10-18T14:11:05.420Z,101493.44
2022-10-18T14:13:07.549Z,101489.72
2022-10-18T14:15:30.192Z,101490.41
2022-10-18T14:17:42.818Z,101475.22
2022-10-18T14:20:01.668Z,101460.66
2022-10-18T14:22:32.498Z,101469.84
2022-10-18T14:24:34.806Z,101471.00
2022-10-18T14:26:36.933Z,101461.34
2022-10-18T14:28:58.426Z,101467.75
2022-10-18T14:31:06.603Z,101462.28
2022-10-18T14:33:33.598Z,101459.69
2022-10-18T14:35:35.936Z,101453.00
2022-10-18T14:37:38.023Z,101455.34
2022-10-18T14:39:40.130Z,101446.81
2022-10-18T14:41:55.810Z,101440.94
2022-10-18T14:44:15.732Z,101433.72
2022-10-18T14:46:28.970Z,101432.88
2022-10-18T14:48:33.279Z,101433.72
2022-10-18T14:50:35.422Z,101435.69
2022-10-18T14:52:37.515Z,101436.84
2022-10-18T14:54:39.615Z,101437.09
2022-10-18T14:56:41.914Z,101444.00
2022-10-18T14:58:44.011Z,101442.16
2022-10-18T15:00:48.456Z,101434.59
2022-10-18T15:02:50.954Z,101441.47
2022-10-18T15:05:05.215Z,101436.09
2022-10-18T15:07:08.045Z,101436.25
2022-10-18T15:09:10.217Z,101445.09
2022-10-18T15:11:14.487Z,101442.22
2022-10-18T15:13:17.360Z,101442.81
2022-10-18T15:15:26.587Z,101437.09
2022-10-18T15:17:32.443Z,101437.94
2022-10-18T15:19:39.548Z,101439.28
2022-10-18T15:24:26.662Z,101438.16
2022-10-18T15:26:29.663Z,101434.44
2022-10-18T15:28:50.257Z,101433.16
2022-10-18T15:30:52.390Z,101437.56
2022-10-18T15:33:02.073Z,101432.66
2022-10-18T15:35:22.131Z,101441.22
2022-10-18T15:37:38.493Z,101443.50
2022-10-18T15:39:40.634Z,101440.88
2022-10-18T15:41:58.594Z,101440.06
2022-10-18T15:44:21.145Z,101447.94
2022-10-18T15:46:32.533Z,101433.03
2022-10-18T15:48:41.523Z,101439.44
2022-10-18T15:50:49.761Z,101447.78
2022-10-18T15:52:51.883Z,101454.03
2022-10-18T15:54:54.026Z,101449.97
2022-10-18T15:56:56.393Z,101448.31
2022-10-18T15:59:00.882Z,101449.97
2022-10-18T16:01:04.443Z,101441.13
2022-10-18T16:03:09.331Z,101448.81
2022-10-18T16:05:18.355Z,101445.88
2022-10-18T16:07:20.485Z,101458.78
2022-10-18T16:09:24.272Z,101446.34
2022-10-18T16:11:26.506Z,101438.66
2022-10-18T16:13:28.759Z,101450.47
2022-10-18T16:15:30.839Z,101468.00
2022-10-18T16:17:33.241Z,101461.63
2022-10-18T16:19:35.545Z,101459.66
2022-10-18T16:21:38.764Z,101460.81
2022-10-18T16:23:59.703Z,101456.41
2022-10-18T16:26:22.551Z,101455.91
2022-10-18T16:28:45.141Z,101461.47
2022-10-18T16:31:07.906Z,101465.22
2022-10-18T16:33:30.993Z,101464.25
2022-10-18T16:35:53.687Z,101457.06
2022-10-18T16:38:34.156Z,101467.03
2022-10-18T16:40:57.584Z,101460.66
2022-10-18T16:43:20.042Z,101465.44
2022-10-18T16:45:42.411Z,101465.44
2022-10-18T16:48:05.475Z,101469.34
2022-10-18T16:50:29.061Z,101463.59
2022-10-18T16:52:53.205Z,101454.94
2022-10-18T16:55:21.170Z,101469.16
2022-10-18T16:57:43.851Z,101471.94
2022-10-18T17:00:07.008Z,101470.50
2022-10-18T17:02:29.472Z,101464.09
2022-10-18T17:04:51.924Z,101466.06
2022-10-18T17:07:23.552Z,101463.13
2022-10-18T17:09:56.560Z,101466.72
2022-10-18T17:12:18.965Z,101466.56
2022-10-18T17:14:41.376Z,101486.38
2022-10-18T17:17:03.749Z,101474.94
2022-10-18T17:19:26.108Z,101475.59
2022-10-18T17:21:56.841Z,101467.53
2022-10-18T17:24:22.543Z,101469.16
2022-10-18T17:26:44.958Z,101481.66
2022-10-18T17:29:08.362Z,101473.28
2022-10-18T17:31:31.138Z,101479.69
2022-10-18T17:33:55.378Z,101490.81
2022-10-18T17:36:17.874Z,101500.00
2022-10-18T17:38:40.330Z,101495.09
2022-10-18T17:41:11.973Z,101495.91
2022-10-18T17:43:34.471Z,101495.78
2022-10-18T17:45:57.115Z,101499.19
2022-10-18T17:48:19.577Z,101495.63
2022-10-18T17:50:42.118Z,101492.66
2022-10-18T17:53:04.479Z,101496.59
2022-10-18T17:55:27.623Z,101488.59
2022-10-18T17:57:50.036Z,101488.09
2022-10-18T18:00:13.083Z,101489.56
2022-10-18T18:02:38.197Z,101507.09
2022-10-18T18:05:02.525Z,101499.88
2022-10-18T18:07:25.003Z,101505.63
2022-10-18T18:09:45.677Z,101498.91
2022-10-18T18:12:06.338Z,101504.34
2022-10-18T18:14:28.716Z,101500.06
2022-10-18T18:16:51.360Z,101496.66
2022-10-18T18:19:14.187Z,101499.78
2022-10-18T18:21:36.668Z,101495.84
2022-10-18T18:23:59.100Z,101505.19
2022-10-18T18:26:22.057Z,101498.63
2022-10-18T18:28:44.652Z,101503.72
2022-10-18T18:31:07.979Z,101512.91
2022-10-18T18:33:32.762Z,101501.94
2022-10-18T18:35:57.222Z,101506.50
2022-10-18T18:38:19.637Z,101500.78
2022-10-18T18:40:42.034Z,101494.56
2022-10-18T18:43:18.978Z,101492.91
2022-10-18T18:45:52.070Z,101503.72
2022-10-18T18:48:18.971Z,101506.03
2022-10-18T18:50:50.088Z,101504.22
2022-10-18T18:53:12.436Z,101509.97
2022-10-18T18:55:39.742Z,101510.28
2022-10-18T18:58:02.086Z,101507.84
2022-10-18T19:00:24.778Z,101507.97
2022-10-18T19:02:47.150Z,101514.66
2022-10-18T19:05:09.743Z,101515.84
2022-10-18T19:07:32.516Z,101521.72
2022-10-18T19:09:55.138Z,101513.38
2022-10-18T19:12:20.520Z,101514.38
2022-10-18T19:14:43.894Z,101517.09
2022-10-18T19:17:07.950Z,101522.34
2022-10-18T19:19:30.923Z,101522.19
2022-10-18T19:22:00.630Z,101520.88
2022-10-18T19:24:24.328Z,101527.38
2022-10-18T19:26:58.399Z,101540.13
2022-10-18T19:29:25.521Z,101534.75
2022-10-18T19:31:48.153Z,101550.41
2022-10-18T19:34:12.381Z,101550.25
2022-10-18T19:36:35.108Z,101542.38
2022-10-18T19:38:57.937Z,101549.09
2022-10-18T19:41:20.400Z,101550.41
2022-10-18T19:43:42.836Z,101545.47
2022-10-18T19:46:05.541Z,101542.53
2022-10-18T19:48:27.924Z,101538.25
2022-10-18T19:50:50.883Z,101545.09
2022-10-18T19:53:13.242Z,101543.28
2022-10-18T19:55:35.652Z,101543.91
2022-10-18T19:57:57.987Z,101542.44
2022-10-18T20:00:20.479Z,101541.75
2022-10-18T20:02:42.854Z,101549.38
2022-10-18T20:05:05.792Z,101542.34
2022-10-18T20:07:28.199Z,101542.94
2022-10-18T20:09:50.684Z,101547.19
2022-10-18T20:12:13.054Z,101550.69
2022-10-18T20:14:35.442Z,101545.78
2022-10-18T20:16:57.895Z,101547.25
2022-10-18T20:19:20.236Z,101545.34
2022-10-18T20:21:42.643Z,101547.31
2022-10-18T20:24:05.710Z,101553.50
2022-10-18T20:26:28.208Z,101545.44
2022-10-18T20:28:58.533Z,101550.47
2022-10-18T20:31:21.105Z,101548.97
2022-10-18T20:33:43.890Z,101536.06
2022-10-18T20:36:11.692Z,101542.19
2022-10-18T20:38:35.921Z,101540.34
2022-10-18T20:41:18.279Z,101541.13
2022-10-18T20:43:40.782Z,101541.53
2022-10-18T20:46:03.513Z,101548.72
2022-10-18T20:48:26.939Z,101539.50
2022-10-18T20:50:49.402Z,101545.38
2022-10-18T20:53:11.735Z,101537.16
2022-10-18T20:55:34.127Z,101542.69
2022-10-18T20:57:56.499Z,101541.09
2022-10-18T21:00:19.007Z,101540.69
2022-10-18T21:02:41.403Z,101540.97
2022-10-18T21:05:04.550Z,101532.28
2022-10-18T21:07:26.854Z,101531.88
2022-10-18T21:09:49.370Z,101527.16
2022-10-18T21:14:39.142Z,101525.94
2022-10-18T21:17:01.552Z,101524.81
2022-10-18T21:19:26.075Z,101529.97
2022-10-18T21:21:51.023Z,101515.59
2022-10-18T21:24:13.993Z,101519.63
2022-10-18T21:26:36.517Z,101515.69
2022-10-18T21:28:59.445Z,101521.84
2022-10-18T21:31:24.054Z,101519.19
2022-10-18T21:33:46.681Z,101508.94
2022-10-18T21:36:09.352Z,101506.69
2022-10-18T21:38:31.787Z,101506.19
2022-10-18T21:40:54.304Z,101489.03
2022-10-18T21:43:16.818Z,101506.19
2022-10-18T21:45:39.164Z,101498.38
2022-10-18T21:48:02.832Z,101500.84
2022-10-18T21:50:25.349Z,101506.38
2022-10-18T21:52:48.514Z,101498.06
2022-10-18T21:55:10.974Z,101501.34
2022-10-18T22:00:02.112Z,101494.34
2022-10-18T22:02:24.504Z,101499.28
2022-10-18T22:04:47.174Z,101485.91
2022-10-18T22:07:09.576Z,101489.50
2022-10-18T22:09:32.332Z,101484.19
2022-10-18T22:11:54.807Z,101492.50
2022-10-18T22:14:17.214Z,101485.81
2022-10-18T22:16:39.567Z,101472.47
2022-10-18T22:19:02.791Z,101474.63
2022-10-18T22:21:25.250Z,101470.22
2022-10-18T22:23:50.287Z,101467.47
2022-10-18T22:26:21.974Z,101476.25
2022-10-18T22:28:44.785Z,101470.09
2022-10-18T22:31:13.763Z,101468.78
2022-10-18T22:35:59.408Z,101462.28
2022-10-18T22:38:21.838Z,101463.44
2022-10-18T22:40:44.574Z,101451.19
2022-10-18T22:43:06.902Z,101464.13
2022-10-18T22:45:29.253Z,101456.63
2022-10-18T22:47:51.623Z,101457.13
2022-10-18T22:50:14.250Z,101460.72
2022-10-18T22:52:36.753Z,101450.75
2022-10-18T22:54:59.302Z,101454.84
2022-10-18T22:57:21.830Z,101456.00
2022-10-18T22:59:44.267Z,101451.09
2022-10-18T23:02:06.827Z,101446.66
2022-10-18T23:04:29.481Z,101455.19
2022-10-18T23:06:51.854Z,101449.44
2022-10-18T23:09:14.325Z,101461.03
2022-10-18T23:11:36.966Z,101448.94
2022-10-18T23:13:59.438Z,101444.53
2022-10-18T23:16:22.014Z,101454.50
2022-10-18T23:18:44.464Z,101460.03
2022-10-18T23:21:09.619Z,101452.66
2022-10-18T23:23:35.474Z,101446.47
2022-10-18T23:25:57.878Z,101450.69
2022-10-18T23:28:20.297Z,101447.94
2022-10-18T23:30:42.967Z,101438.09
2022-10-18T23:33:05.325Z,101441.88
2022-10-18T23:35:28.898Z,101441.88
2022-10-18T23:37:52.035Z,101446.91
2022-10-18T23:40:14.531Z,101444.13
2022-10-18T23:42:37.064Z,101440.38
2022-10-18T23:44:59.486Z,101432.34
2022-10-18T23:47:21.910Z,101433.47
2022-10-18T23:49:44.390Z,101435.47
2022-10-18T23:52:07.382Z,101437.41
2022-10-18T23:54:29.798Z,101426.94
2022-10-18T23:56:52.196Z,101434.53
2022-10-18T23:59:14.632Z,101423.44
